Historique des mesures à Cassis (13260), France
Quotidien Résumé Janvier 25, 2017 Unités:  Métrique    US   Métrique/US
« Précédent (Jour)
Suivant (Jour) »
Quotidien Hebdomadaire Mensuel Annuel Période au choix
  Maximum: Minimum: Moyenne:
Température: TemperatureC °C 3.5 °C 5.4 °C
Point de rosée: DewpointC °C -3.8 °C 0.1 °C
Humidité: Humidity % 55 % 65 %
Vitesse du vent: 0 km/h 0 km/h 2.4 km/h
Rafales: 0 km/h - -
Vent:- - SSW
Pression: PressurehPa hPa 1013.8 hPa -
Précipitations: 9.4 mm    
Historical Graphs
 
 
Mesures pour : Janvier 25, 2017
Heure Temperature Point de rosée Pression Vent Vitesse du vent Rafales Humidité Pluie (par heure) Conditions
TemperatureC °C DewpointC °C PressurehPa hPa Calm     Humidity % HourlyPrecipMM mm SoftwareType W/m2
00:10 5.4 °C -3.0 °C 1013.8 hPa Calm   6.4 km/h 55 % 0.0 mm open2300-1.11 W/m2
01:11 5.2 °C -2.9 °C 1014.1 hPa North 7.6 km/h 13.2 km/h 56 % 0.0 mm open2300-1.11 W/m2
02:10 4.9 °C -3.2 °C 1013.8 hPa NNW 5.6 km/h 5.6 km/h 56 % 0.0 mm open2300-1.11 W/m2
03:11 5.1 °C -3.0 °C 1014.4 hPa Calm     56 % 0.0 mm open2300-1.11 W/m2
04:10 4.3 °C -3.6 °C 1014.1 hPa NNW 6.4 km/h 22.5 km/h 57 % 0.0 mm open2300-1.11 W/m2
05:11 4.0 °C -3.1 °C 1015.1 hPa Calm     60 % 0.0 mm open2300-1.11 W/m2
06:10 3.5 °C -3.8 °C 1015.5 hPa NNW 6.4 km/h 8.9 km/h 59 % 0.0 mm open2300-1.11 W/m2
07:11 3.5 °C -3.6 °C 1015.8 hPa NNW 6.4 km/h 6.4 km/h 60 % 0.0 mm open2300-1.11 W/m2
08:10 3.9 °C -3.7 °C 1016.1 hPa Calm     58 % 0.0 mm open2300-1.11 W/m2
09:11 4.1 °C -3.5 °C 1016.5 hPa Calm     58 % 0.0 mm open2300-1.11 W/m2
10:10 4.4 °C -3.4 °C 1017.5 hPa Calm   10.9 km/h 57 % 0.0 mm open2300-1.11 W/m2
11:11 4.7 °C -2.4 °C 1017.8 hPa North 5.6 km/h 7.6 km/h 60 % 0.0 mm open2300-1.11 W/m2
12:10 4.2 °C -0.1 °C 1017.5 hPa NNW 19.6 km/h 19.6 km/h 74 % 0.5 mm open2300-1.11 W/m2
13:11 4.5 °C 1.0 °C 1016.8 hPa Calm     78 % 2.5 mm open2300-1.11 W/m2
14:10 4.3 °C 1.3 °C 1016.5 hPa Calm     81 % 3.0 mm open2300-1.11 W/m2
15:11 5.6 °C 3.1 °C 1016.1 hPa Calm   10.9 km/h 84 % 3.0 mm open2300-1.11 W/m2
16:10 6.1 °C 3.6 °C 1016.5 hPa Calm     84 % 0.0 mm open2300-1.11 W/m2
17:11 7.6 °C 4.9 °C 1016.1 hPa North 1.8 km/h 1.8 km/h 83 % 0.0 mm open2300-1.11 W/m2
18:10 7.4 °C 4.6 °C 1016.5 hPa Calm     82 % 0.0 mm open2300-1.11 W/m2
19:11 8.1 °C 5.1 °C 1016.8 hPa Calm     81 % 0.0 mm open2300-1.11 W/m2
20:10 8.8 °C 4.9 °C 1016.8 hPa Calm     77 % 0.0 mm open2300-1.11 W/m2
21:11 8.9 °C 4.7 °C 1017.2 hPa Calm     75 % 0.0 mm open2300-1.11 W/m2
22:10 8.4 °C 4.0 °C 1017.5 hPa Calm     74 % 0.0 mm open2300-1.11 W/m2
23:11 9.1 °C 4.1 °C 1017.2 hPa Calm     71 % 0.0 mm open2300-1.11 W/m2
Observations météo à CASSIS
WU-History script by Weather Underground - 1 mb